createdAt,value
2023-03-07T00:04:27.954Z,99034.61
2023-03-07T00:09:31.881Z,99031.04
2023-03-07T00:14:36.207Z,99033.40
2023-03-07T00:19:43.544Z,99029.98
2023-03-07T00:24:49.041Z,99031.65
2023-03-07T00:29:52.999Z,99029.23
2023-03-07T00:35:00.544Z,99022.79
2023-03-07T00:40:06.444Z,99019.37
2023-03-07T00:45:11.403Z,99011.98
2023-03-07T00:50:15.205Z,99008.48
2023-03-07T00:55:19.919Z,99002.08
2023-03-07T01:00:23.555Z,98993.32
2023-03-07T01:05:28.069Z,98981.17
2023-03-07T01:10:33.718Z,98981.09
2023-03-07T01:15:40.448Z,98978.88
2023-03-07T01:20:44.126Z,98974.73
2023-03-07T01:25:48.168Z,98966.20
2023-03-07T01:30:59.729Z,98958.79
2023-03-07T01:36:05.380Z,98946.02
2023-03-07T01:41:10.727Z,98940.84
2023-03-07T01:46:18.920Z,98941.41
2023-03-07T01:51:34.449Z,98933.04
2023-03-07T01:56:41.053Z,98921.77
2023-03-07T02:01:44.937Z,98915.94
2023-03-07T02:06:50.599Z,98917.89
2023-03-07T02:11:54.722Z,98920.84
2023-03-07T02:17:01.884Z,98918.05
2023-03-07T02:22:26.201Z,98920.21
2023-03-07T02:27:30.960Z,98922.33
2023-03-07T02:32:35.127Z,98918.08
2023-03-07T02:37:39.334Z,98911.77
2023-03-07T02:42:43.802Z,98906.98
2023-03-07T02:47:49.590Z,98895.65
2023-03-07T02:52:55.224Z,98885.33
2023-03-07T02:57:58.992Z,98880.86
2023-03-07T03:03:04.563Z,98879.80
2023-03-07T03:08:09.128Z,98873.45
2023-03-07T03:13:17.914Z,98874.88
2023-03-07T03:18:22.490Z,98872.02
2023-03-07T03:23:30.328Z,98868.66
2023-03-07T03:28:36.604Z,98862.29
2023-03-07T03:33:44.265Z,98858.45
2023-03-07T03:38:48.282Z,98853.55
2023-03-07T03:43:52.713Z,98842.58
2023-03-07T03:48:57.539Z,98840.10
2023-03-07T03:54:02.753Z,98840.53
2023-03-07T03:59:06.519Z,98836.31
2023-03-07T04:04:10.792Z,98830.92
2023-03-07T04:09:15.628Z,98827.36
2023-03-07T04:14:24.129Z,98823.80
2023-03-07T04:19:29.524Z,98826.38
2023-03-07T04:24:34.428Z,98819.50
2023-03-07T04:29:40.127Z,98818.69
2023-03-07T04:34:54.787Z,98818.30
2023-03-07T04:39:58.638Z,98815.02
2023-03-07T04:45:04.782Z,98813.08
2023-03-07T04:50:10.276Z,98802.46
2023-03-07T04:55:15.960Z,98793.94
2023-03-07T05:00:21.677Z,98790.22
2023-03-07T05:05:26.090Z,98776.23
2023-03-07T05:10:31.792Z,98771.59
2023-03-07T05:15:36.627Z,98762.06
2023-03-07T05:20:43.446Z,98757.95
2023-03-07T05:25:47.585Z,98757.45
2023-03-07T05:30:53.328Z,98748.55
2023-03-07T05:36:02.922Z,98747.85
2023-03-07T05:41:08.055Z,98748.70
2023-03-07T05:46:13.091Z,98748.41
2023-03-07T05:51:17.213Z,98744.17
2023-03-07T05:56:21.538Z,98740.52
2023-03-07T06:01:25.782Z,98731.29
2023-03-07T06:06:31.200Z,98727.23
2023-03-07T06:11:35.428Z,98721.58
2023-03-07T06:16:41.358Z,98717.52
2023-03-07T06:22:07.050Z,98713.14
2023-03-07T06:27:11.072Z,98710.96
2023-03-07T06:32:15.277Z,98709.96
2023-03-07T06:37:19.740Z,98704.27
2023-03-07T06:42:23.959Z,98704.51
2023-03-07T06:47:29.051Z,98692.52
2023-03-07T06:52:34.450Z,98685.95
2023-03-07T06:57:38.522Z,98682.95
2023-03-07T07:02:42.410Z,98677.06
2023-03-07T07:07:47.061Z,98674.56
2023-03-07T07:12:54.841Z,98671.53
2023-03-07T07:17:58.758Z,98667.09
2023-03-07T07:23:03.068Z,98658.44
2023-03-07T07:28:09.996Z,98656.26
2023-03-07T07:33:16.427Z,98656.59
2023-03-07T07:38:23.593Z,98653.77
2023-03-07T07:43:27.297Z,98650.46
2023-03-07T07:48:51.471Z,98652.39
2023-03-07T07:53:55.433Z,98648.13
2023-03-07T07:58:59.250Z,98643.59
2023-03-07T08:04:03.551Z,98638.83
2023-03-07T08:09:07.191Z,98626.28
2023-03-07T08:14:10.997Z,98614.91
2023-03-07T08:19:15.692Z,98612.55
2023-03-07T08:24:21.790Z,98603.50
2023-03-07T08:29:27.594Z,98602.04
2023-03-07T08:34:35.100Z,98587.30
2023-03-07T08:39:38.886Z,98582.98
2023-03-07T08:44:42.660Z,98577.27
2023-03-07T08:49:46.386Z,98579.45
2023-03-07T08:54:50.052Z,98578.55
2023-03-07T08:59:54.037Z,98573.17
2023-03-07T09:04:57.842Z,98569.00
2023-03-07T09:10:01.483Z,98565.71
2023-03-07T09:15:07.331Z,98568.49
2023-03-07T09:20:22.618Z,98557.83
2023-03-07T09:25:26.448Z,98551.59
2023-03-07T09:30:30.069Z,98544.04
2023-03-07T09:35:33.745Z,98544.47
2023-03-07T09:40:38.286Z,98542.33
2023-03-07T09:46:18.164Z,98540.15
2023-03-07T09:51:38.896Z,98540.15
2023-03-07T09:56:49.701Z,98537.86
2023-03-07T10:02:01.642Z,98538.88
2023-03-07T10:07:05.663Z,98530.17
2023-03-07T10:12:19.762Z,98525.16
2023-03-07T10:17:59.069Z,98524.71
2023-03-07T10:23:51.960Z,98529.82
2023-03-07T10:28:57.857Z,98522.27
2023-03-07T10:34:22.595Z,98520.98
2023-03-07T10:39:37.134Z,98518.05
2023-03-07T10:44:41.133Z,98517.09
2023-03-07T10:49:46.642Z,98511.40
2023-03-07T10:54:50.558Z,98503.69
2023-03-07T10:59:54.083Z,98501.52
2023-03-07T11:04:58.229Z,98497.36
2023-03-07T11:10:22.935Z,98491.08
2023-03-07T11:15:27.806Z,98491.53
2023-03-07T11:20:49.484Z,98489.65
2023-03-07T11:25:55.225Z,98486.08
2023-03-07T11:31:20.174Z,98483.09
2023-03-07T11:36:33.327Z,98478.50
2023-03-07T11:41:39.180Z,98473.70
2023-03-07T11:47:28.013Z,98467.08
2023-03-07T11:52:57.583Z,98459.69
2023-03-07T11:58:27.592Z,98450.30
2023-03-07T12:03:49.478Z,98451.91
2023-03-07T12:09:52.781Z,98435.11
2023-03-07T12:15:22.851Z,98437.64
2023-03-07T12:21:13.124Z,98428.55
2023-03-07T12:26:50.743Z,98422.92
2023-03-07T12:31:58.369Z,98415.89
2023-03-07T12:37:14.021Z,98410.54
2023-03-07T12:43:00.927Z,98405.62
2023-03-07T12:48:09.132Z,98404.14
2023-03-07T12:53:41.730Z,98402.17
2023-03-07T12:58:52.557Z,98399.30
2023-03-07T13:04:19.212Z,98397.92
2023-03-07T13:09:24.169Z,98393.45
2023-03-07T13:14:42.320Z,98388.71
2023-03-07T13:19:52.699Z,98390.74
2023-03-07T13:25:01.918Z,98382.11
2023-03-07T13:30:08.672Z,98382.84
2023-03-07T13:35:13.502Z,98376.55
2023-03-07T13:40:27.390Z,98375.05
2023-03-07T13:45:40.376Z,98371.11
2023-03-07T13:50:49.910Z,98361.26
2023-03-07T13:56:20.323Z,98354.07
2023-03-07T14:01:30.463Z,98345.98
2023-03-07T14:06:43.672Z,98339.63
2023-03-07T14:12:10.522Z,98345.34
2023-03-07T14:17:59.856Z,98340.15
2023-03-07T14:23:53.746Z,98330.23
2023-03-07T14:29:25.528Z,98322.31
2023-03-07T14:34:35.053Z,98324.63
2023-03-07T14:40:18.452Z,98324.98
2023-03-07T14:45:58.963Z,98315.14
2023-03-07T14:51:12.587Z,98312.74
2023-03-07T14:56:30.178Z,98308.57
2023-03-07T15:01:40.594Z,98308.00
2023-03-07T15:06:44.648Z,98305.73
2023-03-07T15:12:01.899Z,98299.55
2023-03-07T15:17:10.921Z,98299.21
2023-03-07T15:22:19.071Z,98294.72
2023-03-07T15:27:28.973Z,98292.13
2023-03-07T15:32:38.787Z,98292.27
2023-03-07T15:37:55.479Z,98291.15
2023-03-07T15:43:04.488Z,98295.21
2023-03-07T15:48:21.237Z,98288.76
2023-03-07T15:53:27.919Z,98286.17
2023-03-07T15:58:32.158Z,98281.39
2023-03-07T16:03:37.205Z,98278.30
2023-03-07T16:08:41.370Z,98275.55
2023-03-07T16:13:45.111Z,98272.05
2023-03-07T16:18:50.463Z,98266.98
2023-03-07T16:23:54.373Z,98263.85
2023-03-07T16:29:00.258Z,98265.89
2023-03-07T16:34:04.366Z,98270.09
2023-03-07T17:00:04.534Z,98278.83
2023-03-07T17:13:05.529Z,98280.23
2023-03-07T17:18:18.903Z,98288.09
2023-03-07T17:23:25.608Z,98290.65
2023-03-07T17:28:32.372Z,98294.70
2023-03-07T17:33:40.994Z,98296.79
2023-03-07T17:38:45.454Z,98296.95
2023-03-07T17:43:56.661Z,98300.58
2023-03-07T17:49:03.253Z,98298.08
2023-03-07T17:54:13.012Z,98304.75
2023-03-07T17:59:18.023Z,98300.56
2023-03-07T18:04:23.295Z,98301.63
2023-03-07T18:09:32.880Z,98304.12
2023-03-07T18:14:41.293Z,98300.11
2023-03-07T18:19:49.285Z,98297.22
2023-03-07T18:24:55.808Z,98298.08
2023-03-07T18:30:00.550Z,98298.33
2023-03-07T18:35:06.321Z,98300.14
2023-03-07T18:40:11.791Z,98298.45
2023-03-07T18:45:18.009Z,98301.18
2023-03-07T18:50:24.520Z,98295.73
2023-03-07T18:55:31.240Z,98296.81
2023-03-07T19:00:39.556Z,98293.11
2023-03-07T19:05:46.886Z,98294.89
2023-03-07T19:10:53.526Z,98290.52
2023-03-07T19:16:05.834Z,98290.11
2023-03-07T19:21:14.677Z,98294.75
2023-03-07T19:26:21.551Z,98291.08
2023-03-07T19:31:33.235Z,98294.45
2023-03-07T19:36:45.213Z,98295.91
2023-03-07T19:41:54.593Z,98301.84
2023-03-07T19:47:02.534Z,98304.44
2023-03-07T19:52:09.605Z,98300.70
2023-03-07T19:57:19.982Z,98303.89
2023-03-07T20:02:33.287Z,98305.45
2023-03-07T20:07:50.287Z,98304.81
2023-03-07T20:12:58.308Z,98304.52
2023-03-07T20:18:06.792Z,98309.38
2023-03-07T20:23:12.984Z,98315.77
2023-03-07T20:28:19.110Z,98317.60
2023-03-07T20:33:26.690Z,98319.73
2023-03-07T20:38:41.638Z,98317.55
2023-03-07T20:43:47.956Z,98321.73
2023-03-07T20:48:59.206Z,98321.05
2023-03-07T20:54:08.034Z,98325.79
2023-03-07T20:59:17.575Z,98334.30
2023-03-07T21:04:24.431Z,98343.98
2023-03-07T21:09:35.376Z,98351.18
2023-03-07T21:14:42.118Z,98372.49
2023-03-07T21:19:49.703Z,98383.06
2023-03-07T21:24:55.753Z,98396.78
2023-03-07T21:30:01.854Z,98405.86
2023-03-07T21:35:07.569Z,98414.89
2023-03-07T21:40:13.202Z,98412.48
2023-03-07T21:45:18.452Z,98410.48
2023-03-07T21:50:25.074Z,98411.22
2023-03-07T21:55:30.697Z,98412.42
2023-03-07T22:00:37.418Z,98425.30
2023-03-07T22:05:41.850Z,98430.23
2023-03-07T22:11:00.671Z,98427.94
2023-03-07T22:16:07.494Z,98438.17
2023-03-07T22:21:18.771Z,98437.27
2023-03-07T22:26:22.422Z,98438.28
2023-03-07T22:31:26.542Z,98441.48
2023-03-07T22:36:30.290Z,98440.61
2023-03-07T22:41:34.676Z,98442.95
2023-03-07T22:46:45.604Z,98440.29
2023-03-07T22:51:49.357Z,98442.00
2023-03-07T22:56:53.137Z,98444.94
2023-03-07T23:01:56.778Z,98443.08
2023-03-07T23:07:00.356Z,98449.28
2023-03-07T23:12:04.203Z,98447.17
2023-03-07T23:17:07.881Z,98457.52
2023-03-07T23:22:11.868Z,98470.36
2023-03-07T23:27:15.623Z,98469.88
2023-03-07T23:32:19.603Z,98471.70
2023-03-07T23:37:23.321Z,98473.72
2023-03-07T23:42:27.641Z,98482.14
2023-03-07T23:47:31.342Z,98485.04
2023-03-07T23:52:35.316Z,98496.48
2023-03-07T23:57:40.566Z,98504.78
